sensor_id;sensor_type;location;lat;lon;timestamp;temperature;humidity
7648;DHT22;3866;48.020;11.720;2023-02-01T00:00:57;3.20;99.90
7648;DHT22;3866;48.020;11.720;2023-02-01T00:03:23;3.20;99.90
7648;DHT22;3866;48.020;11.720;2023-02-01T00:05:55;3.20;99.90
7648;DHT22;3866;48.020;11.720;2023-02-01T00:08:23;3.10;99.90
7648;DHT22;3866;48.020;11.720;2023-02-01T00:10:58;3.20;99.90
7648;DHT22;3866;48.020;11.720;2023-02-01T00:13:25;3.20;99.90
7648;DHT22;3866;48.020;11.720;2023-02-01T00:16:01;3.30;99.90
7648;DHT22;3866;48.020;11.720;2023-02-01T00:18:28;3.30;99.90
7648;DHT22;3866;48.020;11.720;2023-02-01T00:20:55;3.20;99.90
7648;DHT22;3866;48.020;11.720;2023-02-01T00:23:22;3.20;99.90
7648;DHT22;3866;48.020;11.720;2023-02-01T00:25:49;3.20;99.90
7648;DHT22;3866;48.020;11.720;2023-02-01T00:28:16;3.20;99.90
7648;DHT22;3866;48.020;11.720;2023-02-01T00:30:43;3.30;99.90
7648;DHT22;3866;48.020;11.720;2023-02-01T00:33:11;3.20;99.90
7648;DHT22;3866;48.020;11.720;2023-02-01T00:35:38;3.30;99.90
7648;DHT22;3866;48.020;11.720;2023-02-01T00:38:05;3.40;99.90
7648;DHT22;3866;48.020;11.720;2023-02-01T00:40:32;3.40;99.90
7648;DHT22;3866;48.020;11.720;2023-02-01T00:42:59;3.40;99.90
7648;DHT22;3866;48.020;11.720;2023-02-01T00:45:26;3.40;99.90
7648;DHT22;3866;48.020;11.720;2023-02-01T00:47:53;3.40;99.90
7648;DHT22;3866;48.020;11.720;2023-02-01T00:50:21;3.40;99.90
7648;DHT22;3866;48.020;11.720;2023-02-01T00:52:48;3.40;99.90
7648;DHT22;3866;48.020;11.720;2023-02-01T00:55:15;3.40;99.90
7648;DHT22;3866;48.020;11.720;2023-02-01T00:57:42;3.40;99.90
7648;DHT22;3866;48.020;11.720;2023-02-01T01:00:10;3.40;99.90
7648;DHT22;3866;48.020;11.720;2023-02-01T01:02:37;3.40;99.90
7648;DHT22;3866;48.020;11.720;2023-02-01T01:05:04;3.40;99.90
7648;DHT22;3866;48.020;11.720;2023-02-01T01:07:32;3.40;99.90
7648;DHT22;3866;48.020;11.720;2023-02-01T01:09:59;3.40;99.90
7648;DHT22;3866;48.020;11.720;2023-02-01T01:12:26;3.30;99.90
7648;DHT22;3866;48.020;11.720;2023-02-01T01:14:53;3.30;99.90
7648;DHT22;3866;48.020;11.720;2023-02-01T01:17:20;3.20;99.90
7648;DHT22;3866;48.020;11.720;2023-02-01T01:19:47;2.90;99.90
7648;DHT22;3866;48.020;11.720;2023-02-01T01:22:14;2.80;99.90
7648;DHT22;3866;48.020;11.720;2023-02-01T01:24:42;2.50;99.90
7648;DHT22;3866;48.020;11.720;2023-02-01T01:27:09;2.40;99.90
7648;DHT22;3866;48.020;11.720;2023-02-01T01:29:36;2.40;99.90
7648;DHT22;3866;48.020;11.720;2023-02-01T01:32:03;2.20;99.90
7648;DHT22;3866;48.020;11.720;2023-02-01T01:34:30;2.30;99.90
7648;DHT22;3866;48.020;11.720;2023-02-01T01:36:57;2.20;99.90
7648;DHT22;3866;48.020;11.720;2023-02-01T01:39:24;2.20;99.90
7648;DHT22;3866;48.020;11.720;2023-02-01T01:41:53;2.20;99.90
7648;DHT22;3866;48.020;11.720;2023-02-01T01:44:57;2.20;99.90
7648;DHT22;3866;48.020;11.720;2023-02-01T01:47:25;2.10;99.90
7648;DHT22;3866;48.020;11.720;2023-02-01T01:49:53;2.00;99.90
7648;DHT22;3866;48.020;11.720;2023-02-01T01:52:21;2.00;99.90
7648;DHT22;3866;48.020;11.720;2023-02-01T01:54:51;1.90;99.90
7648;DHT22;3866;48.020;11.720;2023-02-01T01:57:22;1.90;99.90
7648;DHT22;3866;48.020;11.720;2023-02-01T01:59:56;1.90;99.90
7648;DHT22;3866;48.020;11.720;2023-02-01T02:02:25;1.80;99.90
7648;DHT22;3866;48.020;11.720;2023-02-01T02:04:52;1.80;99.90
7648;DHT22;3866;48.020;11.720;2023-02-01T02:07:22;1.80;99.90
7648;DHT22;3866;48.020;11.720;2023-02-01T02:09:51;1.80;99.90
7648;DHT22;3866;48.020;11.720;2023-02-01T02:12:20;1.80;99.90
7648;DHT22;3866;48.020;11.720;2023-02-01T02:14:47;1.90;99.90
7648;DHT22;3866;48.020;11.720;2023-02-01T02:17:25;1.90;99.90
7648;DHT22;3866;48.020;11.720;2023-02-01T02:26:38;2.00;99.90
7648;DHT22;3866;48.020;11.720;2023-02-01T02:29:35;2.00;99.90
7648;DHT22;3866;48.020;11.720;2023-02-01T02:32:39;2.10;99.90
7648;DHT22;3866;48.020;11.720;2023-02-01T02:35:16;2.10;99.90
7648;DHT22;3866;48.020;11.720;2023-02-01T02:37:53;2.10;99.90
7648;DHT22;3866;48.020;11.720;2023-02-01T02:40:30;2.10;99.90
7648;DHT22;3866;48.020;11.720;2023-02-01T02:43:04;2.10;99.90
7648;DHT22;3866;48.020;11.720;2023-02-01T02:45:53;2.10;99.90
7648;DHT22;3866;48.020;11.720;2023-02-01T02:48:44;2.10;99.90
7648;DHT22;3866;48.020;11.720;2023-02-01T02:51:17;2.10;99.90
7648;DHT22;3866;48.020;11.720;2023-02-01T02:54:22;2.10;99.90
7648;DHT22;3866;48.020;11.720;2023-02-01T02:57:11;2.20;99.90
7648;DHT22;3866;48.020;11.720;2023-02-01T02:59:57;2.20;99.90
7648;DHT22;3866;48.020;11.720;2023-02-01T03:02:43;2.20;99.90
7648;DHT22;3866;48.020;11.720;2023-02-01T03:05:32;2.20;99.90
7648;DHT22;3866;48.020;11.720;2023-02-01T03:08:10;2.20;99.90
7648;DHT22;3866;48.020;11.720;2023-02-01T03:10:47;2.20;99.90
7648;DHT22;3866;48.020;11.720;2023-02-01T03:13:20;2.20;99.90
7648;DHT22;3866;48.020;11.720;2023-02-01T03:15:51;2.20;99.90
7648;DHT22;3866;48.020;11.720;2023-02-01T03:18:26;2.30;99.90
7648;DHT22;3866;48.020;11.720;2023-02-01T03:20:55;2.30;99.90
7648;DHT22;3866;48.020;11.720;2023-02-01T03:23:28;2.30;99.90
7648;DHT22;3866;48.020;11.720;2023-02-01T03:25:58;2.30;99.90
7648;DHT22;3866;48.020;11.720;2023-02-01T03:28:28;2.30;99.90
7648;DHT22;3866;48.020;11.720;2023-02-01T03:30:57;2.40;99.90
7648;DHT22;3866;48.020;11.720;2023-02-01T03:33:25;2.40;99.90
7648;DHT22;3866;48.020;11.720;2023-02-01T03:36:01;2.40;99.90
7648;DHT22;3866;48.020;11.720;2023-02-01T03:38:33;2.40;99.90
7648;DHT22;3866;48.020;11.720;2023-02-01T03:41:08;2.40;99.90
7648;DHT22;3866;48.020;11.720;2023-02-01T03:43:45;2.50;99.90
7648;DHT22;3866;48.020;11.720;2023-02-01T03:46:21;2.50;99.90
7648;DHT22;3866;48.020;11.720;2023-02-01T03:48:51;2.50;99.90
7648;DHT22;3866;48.020;11.720;2023-02-01T03:51:19;2.50;99.90
7648;DHT22;3866;48.020;11.720;2023-02-01T03:53:49;2.50;99.90
7648;DHT22;3866;48.020;11.720;2023-02-01T03:56:18;2.60;99.90
7648;DHT22;3866;48.020;11.720;2023-02-01T03:58:46;2.60;99.90
7648;DHT22;3866;48.020;11.720;2023-02-01T04:01:25;2.60;99.90
7648;DHT22;3866;48.020;11.720;2023-02-01T04:03:52;2.60;99.90
7648;DHT22;3866;48.020;11.720;2023-02-01T04:06:19;2.60;99.90
7648;DHT22;3866;48.020;11.720;2023-02-01T04:08:47;2.60;99.90
7648;DHT22;3866;48.020;11.720;2023-02-01T04:11:14;2.60;99.90
7648;DHT22;3866;48.020;11.720;2023-02-01T04:13:42;2.60;99.90
7648;DHT22;3866;48.020;11.720;2023-02-01T04:16:09;2.60;99.90
7648;DHT22;3866;48.020;11.720;2023-02-01T04:18:36;2.60;99.90
7648;DHT22;3866;48.020;11.720;2023-02-01T04:21:03;2.60;99.90
7648;DHT22;3866;48.020;11.720;2023-02-01T04:23:30;2.60;99.90
7648;DHT22;3866;48.020;11.720;2023-02-01T04:26:03;2.60;99.90
7648;DHT22;3866;48.020;11.720;2023-02-01T04:28:31;2.70;99.90
7648;DHT22;3866;48.020;11.720;2023-02-01T04:30:58;2.60;99.90
7648;DHT22;3866;48.020;11.720;2023-02-01T04:33:25;2.70;99.90
7648;DHT22;3866;48.020;11.720;2023-02-01T04:35:52;2.70;99.90
7648;DHT22;3866;48.020;11.720;2023-02-01T04:38:18;2.70;99.90
7648;DHT22;3866;48.020;11.720;2023-02-01T04:40:47;2.70;99.90
7648;DHT22;3866;48.020;11.720;2023-02-01T04:43:15;2.70;99.90
7648;DHT22;3866;48.020;11.720;2023-02-01T04:45:47;2.70;99.90
7648;DHT22;3866;48.020;11.720;2023-02-01T04:48:15;2.70;99.90
7648;DHT22;3866;48.020;11.720;2023-02-01T04:50:43;2.70;99.90
7648;DHT22;3866;48.020;11.720;2023-02-01T04:53:10;2.70;99.90
7648;DHT22;3866;48.020;11.720;2023-02-01T04:55:37;2.70;99.90
7648;DHT22;3866;48.020;11.720;2023-02-01T04:58:04;2.70;99.90
7648;DHT22;3866;48.020;11.720;2023-02-01T05:00:33;2.70;99.90
7648;DHT22;3866;48.020;11.720;2023-02-01T05:03:00;2.70;99.90
7648;DHT22;3866;48.020;11.720;2023-02-01T05:05:27;2.70;99.90
7648;DHT22;3866;48.020;11.720;2023-02-01T05:07:54;2.70;99.90
7648;DHT22;3866;48.020;11.720;2023-02-01T05:10:21;2.70;99.90
7648;DHT22;3866;48.020;11.720;2023-02-01T05:12:48;2.70;99.90
7648;DHT22;3866;48.020;11.720;2023-02-01T05:15:34;2.70;99.90
7648;DHT22;3866;48.020;11.720;2023-02-01T05:18:01;2.70;99.90
7648;DHT22;3866;48.020;11.720;2023-02-01T05:20:28;2.70;99.90
7648;DHT22;3866;48.020;11.720;2023-02-01T05:22:56;2.70;99.90
7648;DHT22;3866;48.020;11.720;2023-02-01T05:25:23;2.70;99.90
7648;DHT22;3866;48.020;11.720;2023-02-01T05:27:50;2.80;99.90
7648;DHT22;3866;48.020;11.720;2023-02-01T05:30:17;2.70;99.90
7648;DHT22;3866;48.020;11.720;2023-02-01T05:32:49;2.80;99.90
7648;DHT22;3866;48.020;11.720;2023-02-01T05:35:16;2.70;99.90
7648;DHT22;3866;48.020;11.720;2023-02-01T05:37:43;2.80;99.90
7648;DHT22;3866;48.020;11.720;2023-02-01T05:40:11;2.80;99.90
7648;DHT22;3866;48.020;11.720;2023-02-01T05:42:38;2.80;99.90
7648;DHT22;3866;48.020;11.720;2023-02-01T05:45:06;2.90;99.90
7648;DHT22;3866;48.020;11.720;2023-02-01T05:47:33;2.80;99.90
7648;DHT22;3866;48.020;11.720;2023-02-01T05:50:01;2.80;99.90
7648;DHT22;3866;48.020;11.720;2023-02-01T05:52:29;2.70;99.90
7648;DHT22;3866;48.020;11.720;2023-02-01T05:54:55;2.70;99.90
7648;DHT22;3866;48.020;11.720;2023-02-01T05:57:22;2.80;99.90
7648;DHT22;3866;48.020;11.720;2023-02-01T05:59:49;2.70;99.90
7648;DHT22;3866;48.020;11.720;2023-02-01T06:02:16;2.70;99.90
7648;DHT22;3866;48.020;11.720;2023-02-01T06:04:43;2.70;99.90
7648;DHT22;3866;48.020;11.720;2023-02-01T06:07:12;2.70;99.90
7648;DHT22;3866;48.020;11.720;2023-02-01T06:09:38;2.70;99.90
7648;DHT22;3866;48.020;11.720;2023-02-01T06:12:06;2.70;99.90
7648;DHT22;3866;48.020;11.720;2023-02-01T06:14:33;2.80;99.90
7648;DHT22;3866;48.020;11.720;2023-02-01T06:17:00;2.80;99.90
7648;DHT22;3866;48.020;11.720;2023-02-01T06:19:27;2.80;99.90
7648;DHT22;3866;48.020;11.720;2023-02-01T06:21:53;2.80;99.90
7648;DHT22;3866;48.020;11.720;2023-02-01T06:24:22;2.80;99.90
7648;DHT22;3866;48.020;11.720;2023-02-01T06:26:49;2.80;99.90
7648;DHT22;3866;48.020;11.720;2023-02-01T06:29:16;2.80;99.90
7648;DHT22;3866;48.020;11.720;2023-02-01T06:31:42;2.80;99.90
7648;DHT22;3866;48.020;11.720;2023-02-01T06:34:09;2.80;99.90
7648;DHT22;3866;48.020;11.720;2023-02-01T06:36:36;2.80;99.90
7648;DHT22;3866;48.020;11.720;2023-02-01T06:39:04;2.90;99.90
7648;DHT22;3866;48.020;11.720;2023-02-01T06:41:32;2.90;99.90
7648;DHT22;3866;48.020;11.720;2023-02-01T06:44:00;2.90;99.90
7648;DHT22;3866;48.020;11.720;2023-02-01T06:46:27;2.90;99.90
7648;DHT22;3866;48.020;11.720;2023-02-01T06:48:53;3.00;99.90
7648;DHT22;3866;48.020;11.720;2023-02-01T06:51:23;2.90;99.90
7648;DHT22;3866;48.020;11.720;2023-02-01T06:53:50;2.90;99.90
7648;DHT22;3866;48.020;11.720;2023-02-01T06:56:17;2.90;99.90
7648;DHT22;3866;48.020;11.720;2023-02-01T06:58:46;2.90;99.90
7648;DHT22;3866;48.020;11.720;2023-02-01T07:01:13;2.90;99.90
7648;DHT22;3866;48.020;11.720;2023-02-01T07:03:41;2.90;99.90
7648;DHT22;3866;48.020;11.720;2023-02-01T07:06:08;2.90;99.90
7648;DHT22;3866;48.020;11.720;2023-02-01T07:08:37;2.90;99.90
7648;DHT22;3866;48.020;11.720;2023-02-01T07:11:05;2.90;99.90
7648;DHT22;3866;48.020;11.720;2023-02-01T07:13:33;2.90;99.90
7648;DHT22;3866;48.020;11.720;2023-02-01T07:16:03;2.90;99.90
7648;DHT22;3866;48.020;11.720;2023-02-01T07:18:31;2.90;99.90
7648;DHT22;3866;48.020;11.720;2023-02-01T07:20:59;2.80;99.90
7648;DHT22;3866;48.020;11.720;2023-02-01T07:23:26;2.80;99.90
7648;DHT22;3866;48.020;11.720;2023-02-01T07:25:54;2.90;99.90
7648;DHT22;3866;48.020;11.720;2023-02-01T07:28:22;2.90;99.90
7648;DHT22;3866;48.020;11.720;2023-02-01T07:30:49;2.80;99.90
7648;DHT22;3866;48.020;11.720;2023-02-01T07:33:20;2.90;99.90
7648;DHT22;3866;48.020;11.720;2023-02-01T07:35:47;3.00;99.90
7648;DHT22;3866;48.020;11.720;2023-02-01T07:38:15;2.90;99.90
7648;DHT22;3866;48.020;11.720;2023-02-01T07:40:42;2.90;99.90
7648;DHT22;3866;48.020;11.720;2023-02-01T07:43:09;2.90;99.90
7648;DHT22;3866;48.020;11.720;2023-02-01T07:45:36;3.00;99.90
7648;DHT22;3866;48.020;11.720;2023-02-01T07:48:03;2.90;99.90
7648;DHT22;3866;48.020;11.720;2023-02-01T07:50:32;3.00;99.90
7648;DHT22;3866;48.020;11.720;2023-02-01T07:52:59;3.00;99.90
7648;DHT22;3866;48.020;11.720;2023-02-01T07:55:27;2.90;99.90
7648;DHT22;3866;48.020;11.720;2023-02-01T07:57:57;2.90;99.90
7648;DHT22;3866;48.020;11.720;2023-02-01T08:00:25;2.90;99.90
7648;DHT22;3866;48.020;11.720;2023-02-01T08:03:10;2.90;99.90
7648;DHT22;3866;48.020;11.720;2023-02-01T08:05:38;3.00;99.90
7648;DHT22;3866;48.020;11.720;2023-02-01T08:08:05;3.00;99.90
7648;DHT22;3866;48.020;11.720;2023-02-01T08:10:33;3.00;99.90
7648;DHT22;3866;48.020;11.720;2023-02-01T08:13:01;3.00;99.90
7648;DHT22;3866;48.020;11.720;2023-02-01T08:15:29;3.10;99.90
7648;DHT22;3866;48.020;11.720;2023-02-01T08:17:56;3.10;99.90
7648;DHT22;3866;48.020;11.720;2023-02-01T08:20:24;3.10;99.90
7648;DHT22;3866;48.020;11.720;2023-02-01T08:22:54;3.20;99.90
7648;DHT22;3866;48.020;11.720;2023-02-01T08:25:21;3.20;99.90
7648;DHT22;3866;48.020;11.720;2023-02-01T08:27:48;3.20;99.90
7648;DHT22;3866;48.020;11.720;2023-02-01T08:30:15;3.20;99.90
7648;DHT22;3866;48.020;11.720;2023-02-01T08:32:42;3.20;99.90
7648;DHT22;3866;48.020;11.720;2023-02-01T08:35:09;3.20;99.90
7648;DHT22;3866;48.020;11.720;2023-02-01T08:37:36;3.20;99.90
7648;DHT22;3866;48.020;11.720;2023-02-01T08:40:06;3.20;99.90
7648;DHT22;3866;48.020;11.720;2023-02-01T08:42:33;3.20;99.90
7648;DHT22;3866;48.020;11.720;2023-02-01T08:45:20;3.30;99.90
7648;DHT22;3866;48.020;11.720;2023-02-01T08:47:49;3.30;99.90
7648;DHT22;3866;48.020;11.720;2023-02-01T08:50:17;3.30;99.90
7648;DHT22;3866;48.020;11.720;2023-02-01T08:52:44;3.30;99.90
7648;DHT22;3866;48.020;11.720;2023-02-01T08:55:13;3.30;99.90
7648;DHT22;3866;48.020;11.720;2023-02-01T08:57:40;3.40;99.90
7648;DHT22;3866;48.020;11.720;2023-02-01T09:00:12;3.40;99.90
7648;DHT22;3866;48.020;11.720;2023-02-01T09:02:39;3.40;99.90
7648;DHT22;3866;48.020;11.720;2023-02-01T09:05:07;3.40;99.90
7648;DHT22;3866;48.020;11.720;2023-02-01T09:07:34;3.50;99.90
7648;DHT22;3866;48.020;11.720;2023-02-01T09:10:01;3.50;99.90
7648;DHT22;3866;48.020;11.720;2023-02-01T09:12:30;3.50;99.90
7648;DHT22;3866;48.020;11.720;2023-02-01T09:14:58;3.50;99.90
7648;DHT22;3866;48.020;11.720;2023-02-01T09:17:25;3.60;99.90
7648;DHT22;3866;48.020;11.720;2023-02-01T09:19:52;3.60;99.90
7648;DHT22;3866;48.020;11.720;2023-02-01T09:22:19;3.60;99.90
7648;DHT22;3866;48.020;11.720;2023-02-01T09:24:47;3.70;99.90
7648;DHT22;3866;48.020;11.720;2023-02-01T09:27:14;3.70;99.90
7648;DHT22;3866;48.020;11.720;2023-02-01T09:29:42;3.70;99.90
7648;DHT22;3866;48.020;11.720;2023-02-01T09:32:09;3.80;99.90
7648;DHT22;3866;48.020;11.720;2023-02-01T09:34:36;3.90;99.90
7648;DHT22;3866;48.020;11.720;2023-02-01T09:37:03;3.90;99.90
7648;DHT22;3866;48.020;11.720;2023-02-01T09:39:30;3.90;99.90
7648;DHT22;3866;48.020;11.720;2023-02-01T09:42:04;4.00;99.90
7648;DHT22;3866;48.020;11.720;2023-02-01T09:44:56;4.00;99.90
7648;DHT22;3866;48.020;11.720;2023-02-01T09:47:26;4.10;99.90
7648;DHT22;3866;48.020;11.720;2023-02-01T09:49:56;4.10;99.90
7648;DHT22;3866;48.020;11.720;2023-02-01T09:52:28;4.10;99.90
7648;DHT22;3866;48.020;11.720;2023-02-01T09:55:00;4.10;99.90
7648;DHT22;3866;48.020;11.720;2023-02-01T09:57:35;4.10;99.90
7648;DHT22;3866;48.020;11.720;2023-02-01T10:00:16;4.20;99.90
7648;DHT22;3866;48.020;11.720;2023-02-01T10:02:44;4.20;99.90
7648;DHT22;3866;48.020;11.720;2023-02-01T10:05:15;4.20;99.90
7648;DHT22;3866;48.020;11.720;2023-02-01T10:07:47;4.30;99.90
7648;DHT22;3866;48.020;11.720;2023-02-01T10:10:22;4.30;99.90
7648;DHT22;3866;48.020;11.720;2023-02-01T10:13:13;4.30;99.90
7648;DHT22;3866;48.020;11.720;2023-02-01T10:16:03;4.30;99.90
7648;DHT22;3866;48.020;11.720;2023-02-01T10:21:35;4.30;99.90
7648;DHT22;3866;48.020;11.720;2023-02-01T10:27:13;4.40;99.90
7648;DHT22;3866;48.020;11.720;2023-02-01T10:29:42;4.40;99.90
7648;DHT22;3866;48.020;11.720;2023-02-01T10:32:14;4.40;99.90
7648;DHT22;3866;48.020;11.720;2023-02-01T10:34:44;4.40;99.90
7648;DHT22;3866;48.020;11.720;2023-02-01T10:37:23;4.40;99.90
7648;DHT22;3866;48.020;11.720;2023-02-01T10:39:54;4.40;99.90
7648;DHT22;3866;48.020;11.720;2023-02-01T10:42:24;4.40;99.90
7648;DHT22;3866;48.020;11.720;2023-02-01T10:44:52;4.40;99.90
7648;DHT22;3866;48.020;11.720;2023-02-01T10:47:21;4.50;99.90
7648;DHT22;3866;48.020;11.720;2023-02-01T10:49:55;4.40;99.90
7648;DHT22;3866;48.020;11.720;2023-02-01T10:52:33;4.40;99.90
7648;DHT22;3866;48.020;11.720;2023-02-01T10:55:29;4.30;99.90
7648;DHT22;3866;48.020;11.720;2023-02-01T10:57:59;4.30;99.90
7648;DHT22;3866;48.020;11.720;2023-02-01T11:00:27;4.30;99.90
7648;DHT22;3866;48.020;11.720;2023-02-01T11:02:56;4.20;99.90
7648;DHT22;3866;48.020;11.720;2023-02-01T11:05:24;4.30;99.90
7648;DHT22;3866;48.020;11.720;2023-02-01T11:07:53;4.30;99.90
7648;DHT22;3866;48.020;11.720;2023-02-01T11:10:38;4.30;99.90
7648;DHT22;3866;48.020;11.720;2023-02-01T11:13:14;4.30;99.90
7648;DHT22;3866;48.020;11.720;2023-02-01T11:15:43;4.40;99.90
7648;DHT22;3866;48.020;11.720;2023-02-01T11:18:20;4.40;99.90
7648;DHT22;3866;48.020;11.720;2023-02-01T11:20:55;4.30;99.90
7648;DHT22;3866;48.020;11.720;2023-02-01T11:23:24;4.30;99.90
7648;DHT22;3866;48.020;11.720;2023-02-01T11:25:53;4.30;99.90
7648;DHT22;3866;48.020;11.720;2023-02-01T11:28:23;4.30;99.90
7648;DHT22;3866;48.020;11.720;2023-02-01T11:30:53;4.30;99.90
7648;DHT22;3866;48.020;11.720;2023-02-01T11:33:26;4.30;99.90
7648;DHT22;3866;48.020;11.720;2023-02-01T11:35:55;4.30;99.90
7648;DHT22;3866;48.020;11.720;2023-02-01T11:38:27;4.30;99.90
7648;DHT22;3866;48.020;11.720;2023-02-01T11:40:54;4.20;99.90
7648;DHT22;3866;48.020;11.720;2023-02-01T11:43:24;4.20;99.90
7648;DHT22;3866;48.020;11.720;2023-02-01T11:45:57;4.20;99.90
7648;DHT22;3866;48.020;11.720;2023-02-01T11:48:28;4.20;99.90
7648;DHT22;3866;48.020;11.720;2023-02-01T11:51:07;4.20;99.90
7648;DHT22;3866;48.020;11.720;2023-02-01T11:53:47;4.20;99.90
7648;DHT22;3866;48.020;11.720;2023-02-01T11:56:23;4.20;99.90
7648;DHT22;3866;48.020;11.720;2023-02-01T12:01:58;4.20;99.90
7648;DHT22;3866;48.020;11.720;2023-02-01T12:04:49;4.20;99.90
7648;DHT22;3866;48.020;11.720;2023-02-01T12:07:28;4.10;99.90
7648;DHT22;3866;48.020;11.720;2023-02-01T12:10:05;4.10;99.90
7648;DHT22;3866;48.020;11.720;2023-02-01T12:12:42;4.10;99.90
7648;DHT22;3866;48.020;11.720;2023-02-01T12:18:33;4.00;99.90
7648;DHT22;3866;48.020;11.720;2023-02-01T12:21:11;4.00;99.90
7648;DHT22;3866;48.020;11.720;2023-02-01T12:23:51;4.00;99.90
7648;DHT22;3866;48.020;11.720;2023-02-01T12:26:38;4.00;99.90
7648;DHT22;3866;48.020;11.720;2023-02-01T12:32:14;4.00;99.90
7648;DHT22;3866;48.020;11.720;2023-02-01T12:35:02;4.00;99.90
7648;DHT22;3866;48.020;11.720;2023-02-01T12:37:46;4.00;99.90
7648;DHT22;3866;48.020;11.720;2023-02-01T12:40:28;4.00;99.90
7648;DHT22;3866;48.020;11.720;2023-02-01T12:43:01;4.00;99.90
7648;DHT22;3866;48.020;11.720;2023-02-01T12:45:34;4.00;99.90
7648;DHT22;3866;48.020;11.720;2023-02-01T12:48:17;4.00;99.90
7648;DHT22;3866;48.020;11.720;2023-02-01T12:50:50;3.90;99.90
7648;DHT22;3866;48.020;11.720;2023-02-01T12:53:24;3.90;99.90
7648;DHT22;3866;48.020;11.720;2023-02-01T12:55:54;4.00;99.90
7648;DHT22;3866;48.020;11.720;2023-02-01T12:58:24;4.00;99.90
7648;DHT22;3866;48.020;11.720;2023-02-01T13:00:57;3.90;99.90
7648;DHT22;3866;48.020;11.720;2023-02-01T13:03:33;3.90;99.90
7648;DHT22;3866;48.020;11.720;2023-02-01T13:06:04;4.00;99.90
7648;DHT22;3866;48.020;11.720;2023-02-01T13:08:40;4.00;99.90
7648;DHT22;3866;48.020;11.720;2023-02-01T13:11:12;4.10;99.90
7648;DHT22;3866;48.020;11.720;2023-02-01T13:13:47;4.10;99.90
7648;DHT22;3866;48.020;11.720;2023-02-01T13:16:17;4.00;99.90
7648;DHT22;3866;48.020;11.720;2023-02-01T13:18:50;4.00;99.90
7648;DHT22;3866;48.020;11.720;2023-02-01T13:21:21;4.00;99.90
7648;DHT22;3866;48.020;11.720;2023-02-01T13:23:52;4.00;99.90
7648;DHT22;3866;48.020;11.720;2023-02-01T13:26:19;4.00;99.90
7648;DHT22;3866;48.020;11.720;2023-02-01T13:28:49;4.00;99.90
7648;DHT22;3866;48.020;11.720;2023-02-01T13:34:47;4.10;99.90
7648;DHT22;3866;48.020;11.720;2023-02-01T13:37:27;4.10;99.90
7648;DHT22;3866;48.020;11.720;2023-02-01T13:40:09;4.10;99.90
7648;DHT22;3866;48.020;11.720;2023-02-01T13:42:46;4.10;99.90
7648;DHT22;3866;48.020;11.720;2023-02-01T13:45:16;4.20;99.90
7648;DHT22;3866;48.020;11.720;2023-02-01T13:47:46;4.10;99.90
7648;DHT22;3866;48.020;11.720;2023-02-01T13:50:21;4.10;99.90
7648;DHT22;3866;48.020;11.720;2023-02-01T13:52:53;4.20;99.90
7648;DHT22;3866;48.020;11.720;2023-02-01T13:55:30;4.30;99.90
7648;DHT22;3866;48.020;11.720;2023-02-01T13:58:32;4.30;99.90
7648;DHT22;3866;48.020;11.720;2023-02-01T14:01:35;4.30;99.90
7648;DHT22;3866;48.020;11.720;2023-02-01T14:04:04;4.40;99.90
7648;DHT22;3866;48.020;11.720;2023-02-01T14:06:52;4.40;99.90
7648;DHT22;3866;48.020;11.720;2023-02-01T14:09:32;4.40;99.90
7648;DHT22;3866;48.020;11.720;2023-02-01T14:15:25;4.40;99.90
7648;DHT22;3866;48.020;11.720;2023-02-01T14:17:53;4.30;99.90
7648;DHT22;3866;48.020;11.720;2023-02-01T14:20:45;4.30;99.90
7648;DHT22;3866;48.020;11.720;2023-02-01T14:23:25;4.30;99.90
7648;DHT22;3866;48.020;11.720;2023-02-01T14:26:17;4.30;99.90
7648;DHT22;3866;48.020;11.720;2023-02-01T14:28:50;4.40;99.90
7648;DHT22;3866;48.020;11.720;2023-02-01T14:34:36;4.20;99.90
7648;DHT22;3866;48.020;11.720;2023-02-01T14:37:09;4.20;99.90
7648;DHT22;3866;48.020;11.720;2023-02-01T14:39:50;4.20;99.90
7648;DHT22;3866;48.020;11.720;2023-02-01T14:42:23;4.10;99.90
7648;DHT22;3866;48.020;11.720;2023-02-01T14:44:51;4.10;99.90
7648;DHT22;3866;48.020;11.720;2023-02-01T14:47:33;4.10;99.90
7648;DHT22;3866;48.020;11.720;2023-02-01T14:50:17;4.10;99.90
7648;DHT22;3866;48.020;11.720;2023-02-01T14:52:47;4.00;99.90
7648;DHT22;3866;48.020;11.720;2023-02-01T14:55:18;4.00;99.90
7648;DHT22;3866;48.020;11.720;2023-02-01T14:57:50;4.00;99.90
7648;DHT22;3866;48.020;11.720;2023-02-01T15:00:21;4.00;99.90
7648;DHT22;3866;48.020;11.720;2023-02-01T15:02:49;4.00;99.90
7648;DHT22;3866;48.020;11.720;2023-02-01T15:05:28;3.90;99.90
7648;DHT22;3866;48.020;11.720;2023-02-01T15:07:58;3.90;99.90
7648;DHT22;3866;48.020;11.720;2023-02-01T15:10:27;3.80;99.90
7648;DHT22;3866;48.020;11.720;2023-02-01T15:12:56;3.90;99.90
7648;DHT22;3866;48.020;11.720;2023-02-01T15:15:24;3.80;99.90
7648;DHT22;3866;48.020;11.720;2023-02-01T15:17:53;3.80;99.90
7648;DHT22;3866;48.020;11.720;2023-02-01T15:20:23;3.80;99.90
7648;DHT22;3866;48.020;11.720;2023-02-01T15:22:55;3.70;99.90
7648;DHT22;3866;48.020;11.720;2023-02-01T15:25:26;3.70;99.90
7648;DHT22;3866;48.020;11.720;2023-02-01T15:27:53;3.60;99.90
7648;DHT22;3866;48.020;11.720;2023-02-01T15:30:22;3.60;99.90
7648;DHT22;3866;48.020;11.720;2023-02-01T15:32:51;3.50;99.90
7648;DHT22;3866;48.020;11.720;2023-02-01T15:35:43;3.40;99.90
7648;DHT22;3866;48.020;11.720;2023-02-01T15:38:40;3.40;99.90
7648;DHT22;3866;48.020;11.720;2023-02-01T15:41:13;3.40;99.90
7648;DHT22;3866;48.020;11.720;2023-02-01T15:43:43;3.30;99.90
7648;DHT22;3866;48.020;11.720;2023-02-01T15:46:13;3.30;99.90
7648;DHT22;3866;48.020;11.720;2023-02-01T15:48:46;3.30;99.90
7648;DHT22;3866;48.020;11.720;2023-02-01T15:51:17;3.20;99.90
7648;DHT22;3866;48.020;11.720;2023-02-01T15:53:47;3.20;99.90
7648;DHT22;3866;48.020;11.720;2023-02-01T15:56:15;3.20;99.90
7648;DHT22;3866;48.020;11.720;2023-02-01T15:58:50;3.20;99.90
7648;DHT22;3866;48.020;11.720;2023-02-01T16:01:18;3.20;99.90
7648;DHT22;3866;48.020;11.720;2023-02-01T16:03:46;3.10;99.90
7648;DHT22;3866;48.020;11.720;2023-02-01T16:06:29;2.90;99.90
7648;DHT22;3866;48.020;11.720;2023-02-01T16:09:08;2.80;99.90
7648;DHT22;3866;48.020;11.720;2023-02-01T16:11:41;2.80;99.90
7648;DHT22;3866;48.020;11.720;2023-02-01T16:14:08;2.70;99.90
7648;DHT22;3866;48.020;11.720;2023-02-01T16:16:35;2.80;99.90
7648;DHT22;3866;48.020;11.720;2023-02-01T16:19:02;2.80;99.90
7648;DHT22;3866;48.020;11.720;2023-02-01T16:21:30;2.80;99.90
7648;DHT22;3866;48.020;11.720;2023-02-01T16:23:57;2.90;99.90
7648;DHT22;3866;48.020;11.720;2023-02-01T16:26:29;2.90;99.90
7648;DHT22;3866;48.020;11.720;2023-02-01T16:28:56;2.90;99.90
7648;DHT22;3866;48.020;11.720;2023-02-01T16:31:26;2.90;99.90
7648;DHT22;3866;48.020;11.720;2023-02-01T16:33:54;3.00;99.90
7648;DHT22;3866;48.020;11.720;2023-02-01T16:36:21;3.10;99.90
7648;DHT22;3866;48.020;11.720;2023-02-01T16:38:49;3.10;99.90
7648;DHT22;3866;48.020;11.720;2023-02-01T16:41:20;3.10;99.90
7648;DHT22;3866;48.020;11.720;2023-02-01T16:43:50;3.20;99.90
7648;DHT22;3866;48.020;11.720;2023-02-01T16:46:19;3.10;99.90
7648;DHT22;3866;48.020;11.720;2023-02-01T16:48:52;3.20;99.90
7648;DHT22;3866;48.020;11.720;2023-02-01T16:51:19;3.20;99.90
7648;DHT22;3866;48.020;11.720;2023-02-01T16:53:46;3.20;99.90
7648;DHT22;3866;48.020;11.720;2023-02-01T16:56:17;3.30;99.90
7648;DHT22;3866;48.020;11.720;2023-02-01T16:58:44;3.30;99.90
7648;DHT22;3866;48.020;11.720;2023-02-01T17:01:13;3.30;99.90